Time;durP1;ratioP1;P1;durP2;ratioP2;P2;SDS_P1;SDS_P2;PMS_P1;PMS_P2;Temp;Humidity;BMP_temperature;BMP_pressure;BME280_temperature;BME280_humidity;BME280_pressure;Samples;Min_cycle;Max_cycle;Signal;HPM_P1;HPM_P2
2023/08/22 00:00:45;;;;;;;24.30;21.50;;;;;;;20.57;80.06;97723.50;104579;1273;100377;-83
2023/08/22 00:43:50;;;;;;;25.00;22.10;;;;;;;19.79;80.73;97700.77;105686;1265;94348;-83
2023/08/22 00:46:16;;;;;;;25.90;23.00;;;;;;;19.72;80.92;97689.55;106467;1254;98111;-84
2023/08/22 00:48:43;;;;;;;27.60;23.60;;;;;;;19.65;81.08;97686.32;106339;1254;96240;-84
2023/08/22 00:51:12;;;;;;;26.20;22.60;;;;;;;19.66;81.15;97690.88;106291;1254;95845;-84
2023/08/22 00:53:39;;;;;;;26.20;23.20;;;;;;;19.66;81.35;97689.95;106321;1252;97177;-84
2023/08/22 00:56:05;;;;;;;27.10;22.80;;;;;;;19.67;81.23;97686.29;106963;1248;96522;-85
2023/08/22 00:58:32;;;;;;;29.20;22.70;;;;;;;19.68;81.21;97679.16;106938;1248;96095;-84
2023/08/22 01:01:05;;;;;;;26.10;23.10;;;;;;;19.66;81.24;97678.88;106938;1248;95896;-84
2023/08/22 01:03:31;;;;;;;25.40;22.80;;;;;;;19.63;81.26;97682.30;106987;1247;100507;-85
2023/08/22 01:06:40;;;;;;;27.20;23.10;;;;;;;19.59;81.39;97677.77;106955;1255;96146;-85
2023/08/22 01:09:18;;;;;;;23.00;20.70;;;;;;;19.56;81.42;97668.45;106835;1244;96088;-84
2023/08/22 01:11:49;;;;;;;24.50;21.90;;;;;;;19.55;81.56;97664.61;107043;1248;108612;-84
2023/08/22 01:14:23;;;;;;;26.80;22.90;;;;;;;19.54;81.69;97665.70;107027;1245;102075;-84
2023/08/22 01:16:50;;;;;;;24.20;21.70;;;;;;;19.50;81.71;97664.34;107042;1248;100351;-85
2023/08/22 01:19:18;;;;;;;25.40;22.70;;;;;;;19.50;81.75;97665.98;106988;1254;95847;-84
2023/08/22 01:21:51;;;;;;;25.80;23.10;;;;;;;19.50;82.10;97666.44;107064;1247;95874;-85
2023/08/22 01:24:18;;;;;;;28.90;23.20;;;;;;;19.51;82.08;97666.66;107028;1235;100384;-84
2023/08/22 01:26:47;;;;;;;26.50;23.70;;;;;;;19.53;81.87;97671.66;107720;1237;96785;-84
2023/08/22 01:29:24;;;;;;;33.40;25.80;;;;;;;19.54;82.11;97673.87;107747;1239;100697;-84
2023/08/22 01:32:01;;;;;;;32.10;24.30;;;;;;;19.53;82.13;97667.39;107860;1239;96091;-84
2023/08/22 01:34:31;;;;;;;28.80;22.50;;;;;;;19.55;82.12;97673.60;107904;1235;96444;-84
2023/08/22 01:36:59;;;;;;;27.40;24.20;;;;;;;19.54;82.19;97672.38;108036;1249;101383;-84
2023/08/22 01:39:28;;;;;;;27.80;23.60;;;;;;;19.51;82.42;97665.67;108048;1239;102171;-84
2023/08/22 01:41:57;;;;;;;29.50;25.90;;;;;;;19.49;82.65;97660.65;107894;1240;101001;-84
2023/08/22 01:44:24;;;;;;;30.80;27.30;;;;;;;19.50;82.83;97667.08;107989;1240;96848;-84
2023/08/22 01:46:50;;;;;;;35.20;27.60;;;;;;;19.51;82.93;97666.66;107864;1239;95844;-84
2023/08/22 01:49:17;;;;;;;34.00;27.10;;;;;;;19.54;82.89;97661.65;107806;1233;95783;-84
2023/08/22 01:51:46;;;;;;;35.80;27.20;;;;;;;19.55;83.18;97661.65;107814;1248;95956;-84
2023/08/22 01:54:14;;;;;;;35.00;27.30;;;;;;;19.57;83.33;97663.36;107805;1247;96083;-84
2023/08/22 01:56:41;;;;;;;39.70;28.50;;;;;;;19.59;83.34;97667.14;107587;1241;95835;-84
2023/08/22 01:59:07;;;;;;;34.80;28.60;;;;;;;19.60;83.35;97667.33;107868;1246;96765;-84
2023/08/22 02:01:34;;;;;;;39.80;30.00;;;;;;;19.60;83.51;97664.36;107822;1239;95812;-84
2023/08/22 02:04:03;;;;;;;41.30;31.80;;;;;;;19.62;83.39;97666.02;107916;1235;96825;-84
2023/08/22 02:06:31;;;;;;;40.00;31.80;;;;;;;19.62;83.67;97665.10;107871;1246;95794;-85
2023/08/22 02:08:57;;;;;;;38.20;31.20;;;;;;;19.62;83.61;97668.21;107578;1249;96239;-84
2023/08/22 02:11:24;;;;;;;40.70;31.10;;;;;;;19.61;83.56;97665.59;108012;1238;95788;-85
2023/08/22 02:13:50;;;;;;;38.70;29.00;;;;;;;19.59;83.63;97668.09;108038;1233;95821;-84
2023/08/22 02:16:16;;;;;;;40.60;28.30;;;;;;;19.60;83.75;97666.51;108023;1233;95838;-84
2023/08/22 02:18:43;;;;;;;30.10;26.90;;;;;;;19.58;83.64;97665.02;107930;1233;96405;-84
2023/08/22 02:21:09;;;;;;;28.40;25.00;;;;;;;19.57;83.57;97661.81;107848;1246;96311;-84
2023/08/22 02:23:35;;;;;;;25.80;23.10;;;;;;;19.53;83.65;97664.98;107932;1234;96177;-85
2023/08/22 02:26:01;;;;;;;27.50;23.30;;;;;;;19.53;83.61;97666.46;107989;1235;95858;-84
2023/08/22 02:28:28;;;;;;;25.80;23.10;;;;;;;19.52;83.49;97668.15;107771;1233;96415;-85
2023/08/22 02:30:57;;;;;;;26.40;23.20;;;;;;;19.51;83.58;97665.90;107858;1248;95800;-84
2023/08/22 02:33:23;;;;;;;25.10;22.40;;;;;;;19.49;83.55;97662.75;107770;1239;102100;-84
2023/08/22 02:35:50;;;;;;;27.40;22.30;;;;;;;19.47;83.43;97665.98;107960;1245;95966;-84
2023/08/22 02:38:16;;;;;;;25.70;22.30;;;;;;;19.43;83.47;97662.19;107851;1239;96422;-84
2023/08/22 02:40:43;;;;;;;27.40;23.20;;;;;;;19.43;83.53;97663.89;107653;1249;97033;-85
2023/08/22 02:43:09;;;;;;;25.00;20.90;;;;;;;19.40;83.52;97662.44;107924;1234;108492;-84
2023/08/22 02:45:35;;;;;;;29.20;24.70;;;;;;;19.39;83.60;97661.02;108152;1245;96637;-85
2023/08/22 02:48:02;;;;;;;31.90;24.00;;;;;;;19.37;83.69;97659.67;108117;1232;96413;-84
2023/08/22 02:50:28;;;;;;;30.10;23.90;;;;;;;19.38;83.68;97664.12;108224;1245;95803;-84
2023/08/22 02:52:57;;;;;;;27.40;22.80;;;;;;;19.37;83.86;97662.08;108101;1247;101983;-84
2023/08/22 02:55:24;;;;;;;27.10;22.20;;;;;;;19.35;84.03;97658.23;108137;1246;99845;-84
2023/08/22 02:57:50;;;;;;;26.90;23.50;;;;;;;19.35;83.94;97656.63;108118;1237;95810;-84
2023/08/22 03:00:18;;;;;;;29.00;24.60;;;;;;;19.33;84.03;97654.49;108145;1246;95841;-84
2023/08/22 03:02:44;;;;;;;33.10;25.50;;;;;;;19.34;84.16;97656.36;108171;1236;96660;-85
2023/08/22 03:05:14;;;;;;;29.10;25.90;;;;;;;19.34;84.25;97655.98;108230;1232;95871;-85
2023/08/22 03:07:41;;;;;;;33.50;26.30;;;;;;;19.33;84.38;97658.77;108142;1235;95870;-85
2023/08/22 03:10:08;;;;;;;31.40;24.20;;;;;;;19.31;84.37;97658.05;108101;1236;95794;-85
2023/08/22 03:12:34;;;;;;;28.10;24.00;;;;;;;19.27;84.35;97656.86;108112;1237;95841;-85
2023/08/22 03:15:02;;;;;;;26.90;24.00;;;;;;;19.26;84.37;97655.58;108139;1232;95794;-84
2023/08/22 03:17:28;;;;;;;28.90;25.20;;;;;;;19.27;84.33;97653.13;108099;1247;96068;-85
2023/08/22 03:19:55;;;;;;;30.50;24.80;;;;;;;19.27;84.39;97655.98;108170;1247;96528;-85
2023/08/22 03:22:21;;;;;;;28.40;25.40;;;;;;;19.27;84.45;97653.90;108151;1238;101463;-84
2023/08/22 03:24:47;;;;;;;29.70;24.60;;;;;;;19.28;84.55;97650.73;108143;1236;96927;-84
2023/08/22 03:27:13;;;;;;;28.00;23.70;;;;;;;19.28;84.37;97651.33;108125;1236;95797;-85
2023/08/22 03:29:40;;;;;;;28.90;24.70;;;;;;;19.28;84.47;97653.42;108157;1233;95873;-84
2023/08/22 03:32:06;;;;;;;27.00;24.20;;;;;;;19.28;84.53;97650.56;108136;1236;101535;-84
2023/08/22 03:34:32;;;;;;;29.60;26.50;;;;;;;19.28;84.60;97654.23;108128;1236;96056;-85
2023/08/22 03:36:59;;;;;;;29.90;24.80;;;;;;;19.28;84.61;97658.23;108065;1236;95824;-84
2023/08/22 03:39:25;;;;;;;30.40;24.40;;;;;;;19.29;84.68;97661.80;108206;1237;96988;-85
2023/08/22 03:41:51;;;;;;;26.90;24.10;;;;;;;19.31;84.66;97662.48;108170;1237;100058;-84
2023/08/22 03:44:18;;;;;;;31.40;23.90;;;;;;;19.30;84.65;97659.73;108174;1233;95865;-85
2023/08/22 03:46:44;;;;;;;28.60;23.70;;;;;;;19.27;84.85;97653.34;107947;1239;96724;-85
2023/08/22 03:49:11;;;;;;;31.80;25.70;;;;;;;19.26;84.70;97657.45;108210;1235;95813;-85
2023/08/22 03:51:37;;;;;;;28.90;24.80;;;;;;;19.25;84.90;97654.59;108175;1240;99776;-85
2023/08/22 03:54:03;;;;;;;29.50;25.50;;;;;;;19.25;84.88;97655.41;108164;1236;95885;-85
2023/08/22 03:56:30;;;;;;;30.40;26.40;;;;;;;19.26;84.85;97655.13;108167;1235;95777;-85
2023/08/22 03:58:56;;;;;;;27.70;24.70;;;;;;;19.25;85.01;97656.28;108177;1245;95775;-85
2023/08/22 04:01:22;;;;;;;29.60;25.70;;;;;;;19.25;84.98;97658.80;108112;1234;101423;-85
2023/08/22 04:03:48;;;;;;;30.80;25.40;;;;;;;19.26;85.11;97659.30;108147;1236;95811;-85
2023/08/22 04:06:15;;;;;;;33.50;25.70;;;;;;;19.26;85.15;97658.71;108092;1238;96085;-85
2023/08/22 04:08:41;;;;;;;27.60;24.70;;;;;;;19.28;85.13;97658.17;108206;1237;95815;-85
2023/08/22 04:11:07;;;;;;;29.10;25.60;;;;;;;19.29;85.03;97657.27;108183;1234;101325;-85
2023/08/22 04:13:34;;;;;;;27.30;24.30;;;;;;;19.30;85.07;97659.90;108154;1236;96044;-84
2023/08/22 04:16:00;;;;;;;29.10;24.00;;;;;;;19.29;85.04;97660.81;108127;1238;96201;-85
2023/08/22 04:18:26;;;;;;;33.90;26.10;;;;;;;19.29;85.03;97655.12;108228;1245;96014;-85
2023/08/22 04:20:53;;;;;;;31.70;26.60;;;;;;;19.29;85.09;97654.30;108107;1236;101581;-85
2023/08/22 04:23:19;;;;;;;31.20;26.00;;;;;;;19.27;85.10;97654.22;108181;1236;96730;-84
2023/08/22 04:25:45;;;;;;;29.60;25.00;;;;;;;19.25;85.17;97647.79;108142;1236;96063;-84
2023/08/22 04:28:13;;;;;;;32.70;25.60;;;;;;;19.27;85.15;97651.81;108151;1236;95866;-84
2023/08/22 04:30:39;;;;;;;33.60;27.70;;;;;;;19.29;85.32;97652.17;108107;1236;99752;-84
2023/08/22 04:33:05;;;;;;;28.30;25.30;;;;;;;19.31;85.38;97651.20;108176;1232;96565;-84
2023/08/22 04:35:31;;;;;;;29.00;25.40;;;;;;;19.31;85.36;97651.29;108112;1232;96531;-84
2023/08/22 04:37:58;;;;;;;31.10;26.70;;;;;;;19.34;85.32;97652.24;108221;1235;97431;-84
2023/08/22 04:40:24;;;;;;;31.20;26.70;;;;;;;19.35;85.33;97654.72;108127;1236;102736;-84
2023/08/22 04:42:50;;;;;;;28.70;25.70;;;;;;;19.36;85.21;97656.05;108102;1244;97110;-84
2023/08/22 04:45:17;;;;;;;30.20;25.20;;;;;;;19.36;85.24;97654.13;108110;1245;97739;-84
2023/08/22 04:47:43;;;;;;;31.90;27.50;;;;;;;19.37;85.31;97657.81;108163;1244;96525;-84
2023/08/22 04:50:09;;;;;;;34.80;29.00;;;;;;;19.38;85.19;97654.54;108111;1236;102845;-84
2023/08/22 04:52:36;;;;;;;35.30;29.80;;;;;;;19.39;85.30;97655.53;108137;1245;96635;-84
2023/08/22 04:55:04;;;;;;;32.90;28.60;;;;;;;19.41;85.20;97659.94;108043;1234;96633;-84
2023/08/22 04:57:31;;;;;;;33.80;28.20;;;;;;;19.43;85.32;97659.58;107974;1239;97816;-84
2023/08/22 04:59:57;;;;;;;33.60;27.30;;;;;;;19.45;85.30;97663.29;108125;1235;97795;-84
2023/08/22 05:02:24;;;;;;;32.90;27.50;;;;;;;19.48;85.18;97662.95;108187;1236;97755;-84
2023/08/22 05:04:50;;;;;;;32.90;28.40;;;;;;;19.50;85.17;97668.45;108141;1236;98809;-84
2023/08/22 05:07:17;;;;;;;35.30;28.60;;;;;;;19.53;85.29;97670.35;108142;1233;97743;-84
2023/08/22 05:09:43;;;;;;;33.10;29.30;;;;;;;19.55;85.23;97672.75;108101;1246;96525;-84
2023/08/22 05:12:09;;;;;;;35.70;28.40;;;;;;;19.59;85.21;97670.98;108207;1236;96529;-84
2023/08/22 05:14:35;;;;;;;32.90;27.10;;;;;;;19.59;85.35;97668.41;108126;1246;100546;-84
2023/08/22 05:17:03;;;;;;;31.20;26.80;;;;;;;19.60;85.46;97669.73;108150;1235;96509;-84
2023/08/22 05:19:29;;;;;;;30.30;26.40;;;;;;;19.61;85.29;97670.58;107976;1231;96527;-84
2023/08/22 05:21:56;;;;;;;33.50;27.60;;;;;;;19.64;85.49;97669.83;108146;1245;96927;-84
2023/08/22 05:24:22;;;;;;;33.70;28.00;;;;;;;19.68;85.35;97668.80;108163;1236;97108;-84
2023/08/22 05:26:48;;;;;;;33.30;29.20;;;;;;;19.69;85.53;97663.66;108074;1235;96572;-84
2023/08/22 05:29:14;;;;;;;31.60;28.20;;;;;;;19.71;85.52;97659.18;108193;1236;97742;-84
2023/08/22 05:31:41;;;;;;;40.10;31.80;;;;;;;19.72;85.72;97655.48;108147;1236;96547;-84
2023/08/22 05:34:07;;;;;;;36.80;32.20;;;;;;;19.73;85.86;97656.47;108226;1244;96856;-84
2023/08/22 05:36:33;;;;;;;36.20;31.20;;;;;;;19.74;85.90;97656.14;108154;1245;97744;-84
2023/08/22 05:39:00;;;;;;;36.80;30.90;;;;;;;19.75;85.94;97655.23;108059;1237;96536;-84
2023/08/22 05:41:35;;;;;;;36.70;30.40;;;;;;;19.76;85.92;97651.52;108041;1238;102807;-84
2023/08/22 05:44:02;;;;;;;34.70;30.50;;;;;;;19.83;86.01;97653.73;108049;1236;96520;-84
2023/08/22 05:46:29;;;;;;;33.40;29.10;;;;;;;19.88;86.14;97655.73;108053;1245;97631;-84
2023/08/22 05:48:55;;;;;;;32.20;28.80;;;;;;;19.93;86.36;97659.09;108165;1238;96530;-84
2023/08/22 05:51:22;;;;;;;32.30;26.80;;;;;;;19.99;86.28;97658.98;108205;1240;96585;-85
2023/08/22 05:53:48;;;;;;;29.80;26.80;;;;;;;20.04;86.27;97657.37;108126;1245;101963;-84
2023/08/22 05:56:17;;;;;;;29.20;25.90;;;;;;;20.09;86.35;97652.40;108110;1235;97464;-84
2023/08/22 05:58:44;;;;;;;27.20;24.30;;;;;;;20.14;86.35;97653.09;108038;1235;96624;-84
2023/08/22 06:01:10;;;;;;;27.40;24.10;;;;;;;20.19;86.46;97655.46;108092;1231;96740;-83
2023/08/22 06:03:38;;;;;;;29.10;25.90;;;;;;;20.25;86.36;97658.30;108122;1232;97409;-82
2023/08/22 06:06:05;;;;;;;27.90;24.80;;;;;;;20.27;86.23;97653.53;108162;1247;96541;-83
2023/08/22 06:08:31;;;;;;;28.30;25.40;;;;;;;20.32;86.23;97655.58;108090;1243;96552;-83
2023/08/22 06:10:57;;;;;;;27.50;24.60;;;;;;;20.37;86.06;97656.52;108175;1232;96816;-82
2023/08/22 06:13:24;;;;;;;25.50;22.90;;;;;;;20.40;85.89;97655.43;108085;1244;108768;-83
2023/08/22 06:15:50;;;;;;;26.50;23.60;;;;;;;20.46;85.99;97658.58;108147;1245;97789;-83
2023/08/22 06:18:16;;;;;;;30.40;24.50;;;;;;;20.52;86.32;97652.56;108099;1244;97741;-83
2023/08/22 06:20:43;;;;;;;28.60;23.80;;;;;;;20.60;86.19;97655.67;108150;1244;96564;-83
2023/08/22 06:23:10;;;;;;;27.60;23.90;;;;;;;20.67;86.25;97656.29;108069;1235;102734;-83
2023/08/22 06:25:37;;;;;;;24.60;22.10;;;;;;;20.73;85.96;97648.85;108122;1236;97750;-83
2023/08/22 06:28:04;;;;;;;26.90;23.10;;;;;;;20.78;85.92;97647.64;107836;1239;98457;-82
2023/08/22 06:30:31;;;;;;;24.00;21.50;;;;;;;20.84;85.71;97652.88;108131;1245;97766;-83
2023/08/22 06:32:58;;;;;;;23.30;20.90;;;;;;;20.89;85.73;97649.16;108152;1244;96721;-82
2023/08/22 06:35:27;;;;;;;24.60;21.80;;;;;;;20.92;85.70;97646.69;108191;1237;96603;-83
2023/08/22 06:37:54;;;;;;;25.70;21.90;;;;;;;20.98;85.49;97647.42;108096;1235;97625;-82
2023/08/22 06:40:22;;;;;;;24.60;22.00;;;;;;;21.04;85.68;97643.37;108087;1238;96623;-83
2023/08/22 06:42:49;;;;;;;24.90;21.40;;;;;;;21.14;85.77;97643.27;108078;1232;97085;-82
2023/08/22 06:45:15;;;;;;;23.90;20.70;;;;;;;21.24;85.75;97639.90;108143;1244;97431;-83
2023/08/22 06:47:41;;;;;;;23.80;19.70;;;;;;;21.30;85.30;97641.98;108232;1237;97767;-83
2023/08/22 06:50:08;;;;;;;22.20;19.90;;;;;;;21.31;84.87;97639.40;108107;1247;99530;-82
2023/08/22 06:52:34;;;;;;;22.40;20.10;;;;;;;21.33;84.89;97637.92;108101;1238;96500;-82
2023/08/22 06:55:01;;;;;;;21.80;19.30;;;;;;;21.39;85.03;97633.25;108092;1232;96587;-82
2023/08/22 06:57:27;;;;;;;22.20;19.90;;;;;;;21.49;85.06;97635.11;108197;1235;97234;-82
2023/08/22 06:59:53;;;;;;;21.80;19.50;;;;;;;21.60;85.00;97639.12;108203;1232;107852;-84
2023/08/22 07:02:20;;;;;;;20.80;18.50;;;;;;;21.69;85.16;97638.89;108141;1235;97266;-83
2023/08/22 07:04:46;;;;;;;20.80;18.40;;;;;;;21.77;84.83;97631.84;108200;1247;96551;-83
2023/08/22 07:07:12;;;;;;;22.30;19.50;;;;;;;21.86;84.72;97633.85;108213;1240;96554;-83
2023/08/22 07:09:38;;;;;;;27.10;18.40;;;;;;;21.94;84.56;97634.39;108219;1235;100560;-83
2023/08/22 07:12:05;;;;;;;20.20;18.20;;;;;;;22.03;84.21;97633.17;108170;1247;96963;-83
2023/08/22 07:14:31;;;;;;;20.40;17.80;;;;;;;22.09;84.24;97629.31;108157;1237;97415;-83
2023/08/22 07:16:58;;;;;;;20.80;18.60;;;;;;;22.18;83.93;97630.88;108177;1235;96616;-83
2023/08/22 07:19:24;;;;;;;21.60;18.40;;;;;;;22.26;83.83;97630.85;108120;1247;98997;-83
2023/08/22 07:21:50;;;;;;;22.10;19.90;;;;;;;22.35;83.76;97621.95;108115;1245;97070;-83
2023/08/22 07:24:18;;;;;;;20.90;18.80;;;;;;;22.45;83.70;97616.80;108161;1246;96597;-83
2023/08/22 07:26:45;;;;;;;20.00;17.40;;;;;;;22.54;83.45;97615.55;108098;1232;96548;-83
2023/08/22 07:29:11;;;;;;;20.40;18.30;;;;;;;22.64;83.37;97614.84;108198;1237;97443;-83
2023/08/22 07:31:37;;;;;;;20.30;18.20;;;;;;;22.75;83.05;97616.16;108016;1235;96560;-84
2023/08/22 07:34:03;;;;;;;21.30;18.50;;;;;;;22.87;82.85;97617.20;108080;1243;97736;-83
2023/08/22 07:36:30;;;;;;;20.80;18.60;;;;;;;23.04;82.77;97618.07;108102;1247;96596;-83
2023/08/22 07:38:59;;;;;;;21.50;17.40;;;;;;;23.16;82.14;97617.39;108158;1232;96529;-84
2023/08/22 07:41:25;;;;;;;19.00;17.00;;;;;;;23.29;82.24;97613.14;108167;1237;97318;-84
2023/08/22 07:43:52;;;;;;;20.80;17.80;;;;;;;23.36;81.90;97613.30;108105;1238;96849;-83
2023/08/22 07:46:19;;;;;;;21.80;16.90;;;;;;;23.43;81.88;97610.48;108136;1237;97384;-83
2023/08/22 07:48:47;;;;;;;18.50;16.40;;;;;;;23.63;82.30;97609.94;108184;1247;96555;-83
2023/08/22 07:51:13;;;;;;;19.20;17.20;;;;;;;23.85;81.66;97608.90;108071;1237;96500;-83
2023/08/22 08:00:00;;;;;;;17.50;15.60;;;;;;;24.63;80.27;97601.69;108767;1234;103335;-88
2023/08/22 08:02:58;;;;;;;16.60;14.80;;;;;;;25.10;79.94;97605.27;107463;1241;99062;-78
2023/08/22 08:06:05;;;;;;;16.00;14.40;;;;;;;25.65;78.75;97608.84;106438;1253;96669;-80
2023/08/22 08:08:52;;;;;;;19.60;13.40;;;;;;;26.08;76.98;97611.92;106441;1254;97091;-78
2023/08/22 08:11:59;;;;;;;17.20;14.70;;;;;;;26.28;74.91;97610.61;106270;1258;102380;-79
2023/08/22 08:15:06;;;;;;;15.50;13.80;;;;;;;26.34;74.40;97610.16;105099;1262;100373;-79
2023/08/22 11:17:50;;;;;;;12.70;11.50;;;;;;;31.69;50.35;97501.59;108605;1236;99998;-78
2023/08/22 11:20:20;;;;;;;12.20;10.80;;;;;;;31.61;50.66;97500.48;107508;1242;99904;-78
2023/08/22 11:22:49;;;;;;;12.00;10.80;;;;;;;31.64;51.03;97495.66;107492;1244;99019;-79
2023/08/22 11:25:24;;;;;;;12.40;11.10;;;;;;;31.74;50.68;97496.98;107274;1248;97117;-80
2023/08/22 11:28:31;;;;;;;12.70;10.50;;;;;;;31.87;50.78;97497.02;107053;1246;98047;-87
2023/08/22 11:30:58;;;;;;;11.00;10.00;;;;;;;32.03;51.12;97498.55;107158;1248;100982;-79
2023/08/22 11:33:24;;;;;;;11.40;10.40;;;;;;;32.15;51.16;97496.34;106910;1247;97118;-80
2023/08/22 11:35:52;;;;;;;10.60;9.50;;;;;;;32.24;49.60;97498.10;106969;1245;97382;-77
2023/08/22 11:38:22;;;;;;;10.90;9.70;;;;;;;32.27;49.08;97491.23;107077;1251;96704;-78
2023/08/22 11:40:49;;;;;;;10.70;9.70;;;;;;;32.34;48.40;97488.44;107325;1247;97296;-76
2023/08/22 11:43:15;;;;;;;11.10;9.80;;;;;;;32.44;49.11;97484.99;110369;1243;97692;-77
2023/08/22 11:45:46;;;;;;;10.30;9.30;;;;;;;32.59;49.11;97481.30;109927;1245;96693;-84
2023/08/22 11:48:16;;;;;;;11.30;10.00;;;;;;;32.67;47.99;97482.52;107306;1244;99812;-80
2023/08/22 11:50:44;;;;;;;11.20;10.00;;;;;;;32.70;47.86;97480.95;106612;1250;96712;-78
2023/08/22 11:53:13;;;;;;;10.90;9.80;;;;;;;32.72;48.31;97480.30;107910;1238;96988;-78
2023/08/22 11:55:43;;;;;;;15.30;11.30;;;;;;;32.80;48.30;97475.83;108010;1236;102273;-78
2023/08/22 11:58:15;;;;;;;14.40;10.20;;;;;;;32.82;46.40;97473.17;107899;1239;99842;-78
2023/08/22 12:00:42;;;;;;;11.40;10.20;;;;;;;32.75;46.67;97475.26;108231;1246;98993;-93
2023/08/22 12:03:10;;;;;;;11.70;10.50;;;;;;;32.79;47.20;97472.98;108753;1237;96595;-94
2023/08/22 12:05:41;;;;;;;11.70;9.70;;;;;;;32.91;47.24;97468.88;108666;1242;97884;-95
2023/08/22 12:08:07;;;;;;;11.10;9.90;;;;;;;32.97;46.96;97467.29;108217;1241;102205;-92
2023/08/22 12:10:43;;;;;;;10.90;9.90;;;;;;;33.01;46.68;97466.04;107382;1242;96864;-80
2023/08/22 12:13:11;;;;;;;11.20;9.90;;;;;;;33.08;46.15;97461.77;107465;1240;99196;-82
2023/08/22 12:15:47;;;;;;;11.30;9.90;;;;;;;33.10;46.34;97461.83;106981;1246;97484;-82
2023/08/22 12:18:14;;;;;;;10.90;9.90;;;;;;;33.10;46.89;97462.62;107270;1244;97265;-80
2023/08/22 12:20:43;;;;;;;11.30;10.20;;;;;;;33.02;47.08;97458.80;107305;1244;96635;-79
2023/08/22 12:23:12;;;;;;;11.50;10.20;;;;;;;32.96;47.09;97454.01;107340;1255;100211;-80
2023/08/22 12:25:43;;;;;;;12.50;10.30;;;;;;;32.99;46.87;97453.04;106953;1249;370312;-80
2023/08/22 12:28:18;;;;;;;11.00;10.00;;;;;;;33.00;47.24;97448.51;107347;1246;96718;-80
2023/08/22 12:30:47;;;;;;;12.20;9.30;;;;;;;33.05;46.98;97444.45;106957;1248;98292;-89
2023/08/22 12:33:13;;;;;;;11.60;10.20;;;;;;;33.09;46.28;97441.91;107284;1254;100681;-89
2023/08/22 12:35:40;;;;;;;11.30;10.10;;;;;;;33.10;46.88;97442.27;107035;1247;97462;-88
2023/08/22 12:38:07;;;;;;;10.90;9.80;;;;;;;33.08;47.03;97441.49;106924;1242;97714;-92
2023/08/22 12:40:36;;;;;;;10.60;9.60;;;;;;;33.11;46.67;97441.33;106908;1250;96745;-90
2023/08/22 12:43:03;;;;;;;11.00;9.90;;;;;;;33.18;46.63;97440.64;106849;1248;96670;-86
2023/08/22 12:45:29;;;;;;;11.40;9.40;;;;;;;33.26;46.27;97440.32;106478;1254;97819;-80
2023/08/22 12:47:56;;;;;;;12.60;9.90;;;;;;;33.33;46.22;97438.51;106369;1254;96626;-79
2023/08/22 12:50:34;;;;;;;11.30;9.20;;;;;;;33.26;46.00;97435.76;106499;1254;96667;-82
2023/08/22 12:53:08;;;;;;;11.70;9.30;;;;;;;33.10;44.50;97434.19;106593;1254;97602;-79
2023/08/22 12:55:36;;;;;;;10.00;9.10;;;;;;;32.97;45.49;97434.55;106452;1264;101325;-80
2023/08/22 12:58:03;;;;;;;10.90;9.80;;;;;;;33.00;45.69;97432.55;106550;1248;101285;-79
2023/08/22 13:00:50;;;;;;;10.80;9.80;;;;;;;33.03;45.92;97430.31;106447;1260;96842;-89
2023/08/22 13:03:25;;;;;;;11.30;9.60;;;;;;;33.05;45.37;97425.73;106536;1254;97893;-89
2023/08/22 13:05:54;;;;;;;10.70;9.60;;;;;;;33.00;45.59;97425.98;106611;1251;97117;-89
2023/08/22 13:08:20;;;;;;;11.30;9.50;;;;;;;33.05;45.71;97422.71;107110;1248;101200;-92
2023/08/22 13:10:46;;;;;;;11.60;9.30;;;;;;;33.08;44.36;97421.84;107589;1252;96622;-92
2023/08/22 13:13:13;;;;;;;10.50;9.20;;;;;;;33.03;44.75;97418.96;107228;1244;97801;-93
2023/08/22 13:15:49;;;;;;;10.90;9.90;;;;;;;32.93;45.50;97413.91;107215;1241;96544;-81
2023/08/22 13:18:17;;;;;;;9.50;8.60;;;;;;;32.88;45.63;97410.96;107290;1244;101257;-79
2023/08/22 13:20:46;;;;;;;10.10;9.00;;;;;;;32.85;45.99;97409.04;107028;1241;96748;-80
2023/08/22 13:23:13;;;;;;;9.30;8.40;;;;;;;32.89;45.31;97406.61;107269;1244;98839;-81
2023/08/22 13:25:40;;;;;;;10.10;9.10;;;;;;;32.99;44.89;97404.23;106873;1257;96770;-80
2023/08/22 13:28:07;;;;;;;9.80;8.90;;;;;;;33.08;45.05;97398.83;106747;1251;96789;-93
2023/08/22 13:30:34;;;;;;;9.30;8.30;;;;;;;33.13;45.11;97400.63;106784;1249;96757;-92
2023/08/22 13:33:01;;;;;;;10.00;9.10;;;;;;;33.10;45.39;97396.05;106542;1257;96991;-93
2023/08/22 13:35:30;;;;;;;9.10;8.20;;;;;;;33.13;45.17;97397.44;106729;1250;96673;-90
2023/08/22 13:37:56;;;;;;;9.60;8.80;;;;;;;33.23;44.79;97396.27;106626;1253;97805;-90
2023/08/22 13:40:23;;;;;;;11.20;8.10;;;;;;;33.32;44.36;97394.53;106436;1254;97035;-92
2023/08/22 13:42:49;;;;;;;9.90;8.90;;;;;;;33.34;43.57;97393.61;106536;1248;97072;-90
2023/08/22 13:45:15;;;;;;;12.10;8.40;;;;;;;33.24;43.87;97393.05;106663;1251;96814;-92
2023/08/22 13:47:54;;;;;;;9.30;8.40;;;;;;;33.22;43.92;97390.98;106758;1251;97078;-78
2023/08/22 13:50:21;;;;;;;11.60;8.90;;;;;;;33.30;43.74;97386.64;106818;1251;101139;-79
2023/08/22 13:52:48;;;;;;;9.90;9.00;;;;;;;33.40;43.08;97388.98;106756;1249;97305;-79
2023/08/22 13:55:21;;;;;;;10.50;9.10;;;;;;;33.42;43.01;97386.56;107215;1252;96555;-82
2023/08/22 13:57:48;;;;;;;10.10;9.10;;;;;;;33.41;43.84;97388.85;107680;1244;97349;-79
2023/08/22 14:00:14;;;;;;;10.20;9.20;;;;;;;33.45;44.43;97390.30;107899;1249;96766;-80
2023/08/22 14:02:41;;;;;;;10.20;9.30;;;;;;;33.43;43.75;97384.19;107978;1246;97988;-79
2023/08/22 14:05:10;;;;;;;11.40;9.10;;;;;;;33.39;44.42;97384.48;107955;1233;96987;-94
2023/08/22 14:07:39;;;;;;;11.80;9.80;;;;;;;33.43;45.16;97388.98;107467;1245;96713;-93
2023/08/22 14:10:09;;;;;;;10.50;9.40;;;;;;;33.46;45.76;97388.16;107340;1254;97350;-90
2023/08/22 14:12:36;;;;;;;10.60;9.60;;;;;;;33.48;45.67;97387.42;107497;1239;101011;-91
2023/08/22 14:15:11;;;;;;;10.30;9.20;;;;;;;33.39;45.65;97382.48;107421;1243;96767;-88
2023/08/22 14:17:38;;;;;;;11.20;10.00;;;;;;;33.20;45.87;97387.16;107212;1253;98796;-79
2023/08/22 14:20:05;;;;;;;22.30;11.20;;;;;;;33.05;46.01;97385.72;107235;1244;96788;-80
2023/08/22 14:22:31;;;;;;;16.00;11.60;;;;;;;32.91;46.30;97382.05;107202;1255;96607;-89
2023/08/22 14:24:57;;;;;;;12.60;10.70;;;;;;;32.82;46.69;97383.00;107223;1244;96620;-80
2023/08/22 14:27:24;;;;;;;12.50;10.30;;;;;;;32.79;46.88;97381.71;107157;1244;99060;-79
2023/08/22 14:29:52;;;;;;;16.60;11.00;;;;;;;32.80;47.17;97379.21;107215;1256;96690;-79
2023/08/22 14:32:19;;;;;;;13.60;9.60;;;;;;;32.73;47.24;97374.59;107137;1244;97280;-78
2023/08/22 14:34:45;;;;;;;11.30;9.70;;;;;;;32.66;47.38;97378.27;107182;1241;96754;-79
2023/08/22 14:37:12;;;;;;;11.10;9.80;;;;;;;32.51;47.54;97376.35;106964;1255;96731;-78
2023/08/22 14:39:41;;;;;;;17.80;11.60;;;;;;;32.44;47.43;97372.89;106409;1254;97900;-80
2023/08/22 14:42:10;;;;;;;12.60;9.70;;;;;;;32.35;47.47;97373.09;106469;1253;97024;-77
2023/08/22 14:44:39;;;;;;;11.60;9.80;;;;;;;32.23;47.68;97371.27;106367;1254;100684;-79
2023/08/22 14:47:06;;;;;;;11.60;10.40;;;;;;;32.13;48.20;97375.42;106560;1254;101214;-77
2023/08/22 14:49:35;;;;;;;13.00;11.10;;;;;;;32.04;48.38;97373.54;106477;1264;97395;-77
2023/08/22 14:52:07;;;;;;;17.20;11.30;;;;;;;31.96;48.34;97372.48;106250;1255;96672;-78
2023/08/22 14:54:38;;;;;;;15.60;12.50;;;;;;;31.82;48.61;97368.31;106267;1256;97196;-77
2023/08/22 14:57:05;;;;;;;11.50;9.90;;;;;;;31.69;49.03;97374.27;106690;1260;101290;-81
2023/08/22 14:59:31;;;;;;;11.10;10.00;;;;;;;31.61;49.19;97376.63;106713;1248;97091;-78
2023/08/22 15:02:03;;;;;;;10.80;9.90;;;;;;;31.52;49.37;97372.50;106465;1254;97125;-84